SBOSBO CNO / KCNO
Speedbird OnlineSpeedbird Online CNO / KCNO

Chino Airport
14:23 17.1°C

Location Chino, United States
Latitude: 33.97470093
Longitude: -117.637001
Local Time 14:23 on 20 Jun 2024
UTC 0 hours ()
Currency £1 equals USD 1.27
METAR KCNO 201353Z 00000KT 4SM BR OVC009 17/15 A2983 RMK AO2 SLP097 T01670150
TAF
Weather As Of 20 Jun 2024 14:23
Description Mist
Wind 7 km/h from South-West (240°)
Cloud Cover 100%
Precipitation Rain: none, Snow: none
Sunrise 12:39
Sunset 03:04
Codes IATA: CNO
ICAO: KCNO
Altitude 198 Meter / 650 Feet
Distance 8,745 KM / 5,434 Miles
from London.



Support Speedbird Online

© 2017-2024 Speedbird Online